Terminal Aerodrome Forecast
Issued by NWS Knoxville/Tri Cities, TN

Home | Current Version | Previous Version | Text Only | Print | Product List | Glossary On
Versions: 1 2 3 4 5 6 7 8 9 10 11 12 13 14 15 16 17 18 19
000
FTUS44 KMRX 241120
TAFCHA
TAF
KCHA 241120Z 2412/2512 17008KT P6SM BKN040
     FM241800 16012G17KT P6SM BKN040 BKN250
     FM242300 15006KT P6SM SCT040 BKN250
     FM250700 15006KT P6SM OVC040=

USA.gov is the U.S. government's official web portal to all federal, state and local government web resources and services.